sensor_id;sensor_type;location;lat;lon;timestamp;P1;durP1;ratioP1;P2;durP2;ratioP2
31872;SDS011;22407;42.820;23.374;2023-01-23T00:01:48;17.60;;;7.30;;
31872;SDS011;22407;42.820;23.374;2023-01-23T00:04:13;13.35;;;5.80;;
31872;SDS011;22407;42.820;23.374;2023-01-23T00:06:38;15.53;;;6.53;;
31872;SDS011;22407;42.820;23.374;2023-01-23T00:09:05;15.98;;;6.85;;
31872;SDS011;22407;42.820;23.374;2023-01-23T00:11:30;10.73;;;4.93;;
31872;SDS011;22407;42.820;23.374;2023-01-23T00:13:56;10.97;;;4.20;;
31872;SDS011;22407;42.820;23.374;2023-01-23T00:16:22;11.07;;;4.82;;
31872;SDS011;22407;42.820;23.374;2023-01-23T00:18:48;14.43;;;5.78;;
31872;SDS011;22407;42.820;23.374;2023-01-23T00:21:16;15.27;;;4.90;;
31872;SDS011;22407;42.820;23.374;2023-01-23T00:23:42;10.00;;;4.38;;
31872;SDS011;22407;42.820;23.374;2023-01-23T00:26:09;13.30;;;5.28;;
31872;SDS011;22407;42.820;23.374;2023-01-23T00:28:35;12.02;;;4.50;;
31872;SDS011;22407;42.820;23.374;2023-01-23T00:31:01;11.87;;;5.07;;
31872;SDS011;22407;42.820;23.374;2023-01-23T00:33:27;14.80;;;5.40;;
31872;SDS011;22407;42.820;23.374;2023-01-23T00:35:53;11.57;;;4.40;;
31872;SDS011;22407;42.820;23.374;2023-01-23T00:38:18;12.23;;;4.50;;
31872;SDS011;22407;42.820;23.374;2023-01-23T00:40:43;12.83;;;4.50;;
31872;SDS011;22407;42.820;23.374;2023-01-23T00:43:09;13.63;;;4.57;;
31872;SDS011;22407;42.820;23.374;2023-01-23T00:45:34;12.03;;;5.07;;
31872;SDS011;22407;42.820;23.374;2023-01-23T00:48:01;16.10;;;5.60;;
31872;SDS011;22407;42.820;23.374;2023-01-23T00:50:27;14.57;;;5.40;;
31872;SDS011;22407;42.820;23.374;2023-01-23T00:52:52;13.10;;;4.77;;
31872;SDS011;22407;42.820;23.374;2023-01-23T00:55:17;12.77;;;4.83;;
31872;SDS011;22407;42.820;23.374;2023-01-23T00:57:43;13.00;;;4.83;;
31872;SDS011;22407;42.820;23.374;2023-01-23T01:00:08;13.33;;;6.00;;
31872;SDS011;22407;42.820;23.374;2023-01-23T01:02:34;13.40;;;6.40;;
31872;SDS011;22407;42.820;23.374;2023-01-23T01:04:59;19.57;;;6.47;;
31872;SDS011;22407;42.820;23.374;2023-01-23T01:07:24;14.47;;;4.97;;
31872;SDS011;22407;42.820;23.374;2023-01-23T01:09:50;13.25;;;5.40;;
31872;SDS011;22407;42.820;23.374;2023-01-23T01:12:15;12.97;;;4.30;;
31872;SDS011;22407;42.820;23.374;2023-01-23T01:14:40;13.07;;;5.20;;
31872;SDS011;22407;42.820;23.374;2023-01-23T01:17:05;13.67;;;3.73;;
31872;SDS011;22407;42.820;23.374;2023-01-23T01:19:31;12.87;;;4.67;;
31872;SDS011;22407;42.820;23.374;2023-01-23T01:21:56;8.70;;;3.57;;
31872;SDS011;22407;42.820;23.374;2023-01-23T01:24:21;11.20;;;4.73;;
31872;SDS011;22407;42.820;23.374;2023-01-23T01:26:47;10.23;;;4.80;;
31872;SDS011;22407;42.820;23.374;2023-01-23T01:29:12;9.97;;;4.33;;
31872;SDS011;22407;42.820;23.374;2023-01-23T01:31:37;12.43;;;3.93;;
31872;SDS011;22407;42.820;23.374;2023-01-23T01:34:03;10.25;;;4.28;;
31872;SDS011;22407;42.820;23.374;2023-01-23T01:36:28;12.63;;;3.60;;
31872;SDS011;22407;42.820;23.374;2023-01-23T01:38:53;12.57;;;4.40;;
31872;SDS011;22407;42.820;23.374;2023-01-23T01:41:18;13.10;;;4.43;;
31872;SDS011;22407;42.820;23.374;2023-01-23T01:43:44;13.27;;;5.07;;
31872;SDS011;22407;42.820;23.374;2023-01-23T01:48:42;11.60;;;4.60;;
31872;SDS011;22407;42.820;23.374;2023-01-23T01:51:10;14.82;;;3.88;;
31872;SDS011;22407;42.820;23.374;2023-01-23T01:53:37;13.25;;;4.20;;
31872;SDS011;22407;42.820;23.374;2023-01-23T01:56:02;10.63;;;4.33;;
31872;SDS011;22407;42.820;23.374;2023-01-23T01:58:28;12.03;;;4.60;;
31872;SDS011;22407;42.820;23.374;2023-01-23T02:00:53;12.93;;;5.30;;
31872;SDS011;22407;42.820;23.374;2023-01-23T02:03:19;13.90;;;5.23;;
31872;SDS011;22407;42.820;23.374;2023-01-23T02:05:45;14.87;;;5.17;;
31872;SDS011;22407;42.820;23.374;2023-01-23T02:10:40;11.07;;;4.45;;
31872;SDS011;22407;42.820;23.374;2023-01-23T02:13:25;14.73;;;4.80;;
31872;SDS011;22407;42.820;23.374;2023-01-23T02:15:54;14.40;;;4.80;;
31872;SDS011;22407;42.820;23.374;2023-01-23T02:18:19;15.50;;;4.83;;
31872;SDS011;22407;42.820;23.374;2023-01-23T02:20:45;14.60;;;4.53;;
31872;SDS011;22407;42.820;23.374;2023-01-23T02:23:17;15.02;;;5.43;;
31872;SDS011;22407;42.820;23.374;2023-01-23T02:28:10;9.47;;;4.07;;
31872;SDS011;22407;42.820;23.374;2023-01-23T02:30:36;8.65;;;3.63;;
31872;SDS011;22407;42.820;23.374;2023-01-23T02:33:08;8.10;;;3.20;;
31872;SDS011;22407;42.820;23.374;2023-01-23T02:35:33;9.07;;;3.92;;
31872;SDS011;22407;42.820;23.374;2023-01-23T02:37:59;10.70;;;3.33;;
31872;SDS011;22407;42.820;23.374;2023-01-23T02:40:30;7.65;;;3.28;;
31872;SDS011;22407;42.820;23.374;2023-01-23T02:42:56;8.80;;;2.97;;
31872;SDS011;22407;42.820;23.374;2023-01-23T02:45:22;7.20;;;3.47;;
31872;SDS011;22407;42.820;23.374;2023-01-23T02:47:48;9.23;;;3.30;;
31872;SDS011;22407;42.820;23.374;2023-01-23T02:50:14;8.07;;;3.50;;
31872;SDS011;22407;42.820;23.374;2023-01-23T02:52:39;10.47;;;3.07;;
31872;SDS011;22407;42.820;23.374;2023-01-23T02:55:04;7.67;;;2.33;;
31872;SDS011;22407;42.820;23.374;2023-01-23T02:57:30;7.67;;;2.80;;
31872;SDS011;22407;42.820;23.374;2023-01-23T02:59:55;11.27;;;3.97;;
31872;SDS011;22407;42.820;23.374;2023-01-23T03:02:39;9.52;;;3.97;;
31872;SDS011;22407;42.820;23.374;2023-01-23T03:05:04;8.17;;;3.63;;
31872;SDS011;22407;42.820;23.374;2023-01-23T03:07:29;9.00;;;3.17;;
31872;SDS011;22407;42.820;23.374;2023-01-23T03:09:55;11.23;;;3.77;;
31872;SDS011;22407;42.820;23.374;2023-01-23T03:12:20;7.77;;;3.50;;
31872;SDS011;22407;42.820;23.374;2023-01-23T03:14:45;8.33;;;3.20;;
31872;SDS011;22407;42.820;23.374;2023-01-23T03:17:12;9.38;;;3.58;;
31872;SDS011;22407;42.820;23.374;2023-01-23T03:19:38;12.50;;;4.80;;
31872;SDS011;22407;42.820;23.374;2023-01-23T03:22:04;7.83;;;3.40;;
31872;SDS011;22407;42.820;23.374;2023-01-23T03:24:29;8.53;;;3.87;;
31872;SDS011;22407;42.820;23.374;2023-01-23T03:26:54;8.47;;;3.40;;
31872;SDS011;22407;42.820;23.374;2023-01-23T03:29:21;8.53;;;3.30;;
31872;SDS011;22407;42.820;23.374;2023-01-23T03:32:06;6.85;;;2.30;;
31872;SDS011;22407;42.820;23.374;2023-01-23T03:34:31;6.93;;;2.67;;
31872;SDS011;22407;42.820;23.374;2023-01-23T03:36:57;8.33;;;2.57;;
31872;SDS011;22407;42.820;23.374;2023-01-23T03:39:22;8.17;;;3.47;;
31872;SDS011;22407;42.820;23.374;2023-01-23T03:42:06;8.27;;;3.63;;
31872;SDS011;22407;42.820;23.374;2023-01-23T03:44:31;10.83;;;4.00;;
31872;SDS011;22407;42.820;23.374;2023-01-23T03:46:57;10.70;;;4.17;;
31872;SDS011;22407;42.820;23.374;2023-01-23T03:49:22;10.30;;;4.30;;
31872;SDS011;22407;42.820;23.374;2023-01-23T03:51:47;10.20;;;4.60;;
31872;SDS011;22407;42.820;23.374;2023-01-23T03:54:12;10.13;;;3.83;;
31872;SDS011;22407;42.820;23.374;2023-01-23T03:56:39;8.55;;;3.30;;
31872;SDS011;22407;42.820;23.374;2023-01-23T03:59:04;7.13;;;3.13;;
31872;SDS011;22407;42.820;23.374;2023-01-23T04:01:29;7.87;;;2.97;;
31872;SDS011;22407;42.820;23.374;2023-01-23T04:03:55;7.93;;;2.93;;
31872;SDS011;22407;42.820;23.374;2023-01-23T04:06:20;6.47;;;2.63;;
31872;SDS011;22407;42.820;23.374;2023-01-23T04:08:45;8.48;;;3.28;;
31872;SDS011;22407;42.820;23.374;2023-01-23T04:11:11;7.07;;;2.40;;
31872;SDS011;22407;42.820;23.374;2023-01-23T04:13:37;8.23;;;3.73;;
31872;SDS011;22407;42.820;23.374;2023-01-23T04:16:03;7.85;;;3.00;;
31872;SDS011;22407;42.820;23.374;2023-01-23T04:18:28;8.65;;;3.33;;
31872;SDS011;22407;42.820;23.374;2023-01-23T04:20:54;8.43;;;2.97;;
31872;SDS011;22407;42.820;23.374;2023-01-23T04:23:20;8.95;;;3.55;;
31872;SDS011;22407;42.820;23.374;2023-01-23T04:25:45;9.43;;;3.20;;
31872;SDS011;22407;42.820;23.374;2023-01-23T04:28:11;13.07;;;3.77;;
31872;SDS011;22407;42.820;23.374;2023-01-23T04:30:36;6.57;;;2.60;;
31872;SDS011;22407;42.820;23.374;2023-01-23T04:33:02;8.85;;;3.70;;
31872;SDS011;22407;42.820;23.374;2023-01-23T04:35:27;7.17;;;2.63;;
31872;SDS011;22407;42.820;23.374;2023-01-23T04:37:52;6.17;;;2.73;;
31872;SDS011;22407;42.820;23.374;2023-01-23T04:40:17;7.23;;;2.57;;
31872;SDS011;22407;42.820;23.374;2023-01-23T04:42:43;7.57;;;3.17;;
31872;SDS011;22407;42.820;23.374;2023-01-23T04:45:08;7.90;;;3.42;;
31872;SDS011;22407;42.820;23.374;2023-01-23T04:47:34;8.10;;;3.47;;
31872;SDS011;22407;42.820;23.374;2023-01-23T04:49:59;9.60;;;2.93;;
31872;SDS011;22407;42.820;23.374;2023-01-23T04:52:25;6.43;;;2.50;;
31872;SDS011;22407;42.820;23.374;2023-01-23T04:54:50;9.97;;;3.50;;
31872;SDS011;22407;42.820;23.374;2023-01-23T04:57:15;7.70;;;3.10;;
31872;SDS011;22407;42.820;23.374;2023-01-23T04:59:41;8.47;;;3.40;;
31872;SDS011;22407;42.820;23.374;2023-01-23T05:02:06;6.80;;;2.93;;
31872;SDS011;22407;42.820;23.374;2023-01-23T05:04:31;6.97;;;2.67;;
31872;SDS011;22407;42.820;23.374;2023-01-23T05:06:57;7.13;;;2.20;;
31872;SDS011;22407;42.820;23.374;2023-01-23T05:09:22;8.47;;;2.57;;
31872;SDS011;22407;42.820;23.374;2023-01-23T05:11:47;7.87;;;2.40;;
31872;SDS011;22407;42.820;23.374;2023-01-23T05:14:13;5.60;;;2.03;;
31872;SDS011;22407;42.820;23.374;2023-01-23T05:16:38;5.83;;;2.67;;
31872;SDS011;22407;42.820;23.374;2023-01-23T05:19:03;7.13;;;2.70;;
31872;SDS011;22407;42.820;23.374;2023-01-23T05:21:29;7.77;;;1.87;;
31872;SDS011;22407;42.820;23.374;2023-01-23T05:23:54;5.23;;;2.13;;
31872;SDS011;22407;42.820;23.374;2023-01-23T05:26:19;5.30;;;2.20;;
31872;SDS011;22407;42.820;23.374;2023-01-23T05:28:45;7.70;;;2.40;;
31872;SDS011;22407;42.820;23.374;2023-01-23T05:31:10;5.35;;;1.77;;
31872;SDS011;22407;42.820;23.374;2023-01-23T05:33:36;6.20;;;2.50;;
31872;SDS011;22407;42.820;23.374;2023-01-23T05:36:01;9.40;;;3.47;;
31872;SDS011;22407;42.820;23.374;2023-01-23T05:38:26;6.47;;;2.70;;
31872;SDS011;22407;42.820;23.374;2023-01-23T05:40:51;7.10;;;2.43;;
31872;SDS011;22407;42.820;23.374;2023-01-23T05:43:17;6.07;;;2.42;;
31872;SDS011;22407;42.820;23.374;2023-01-23T05:45:43;6.33;;;2.37;;
31872;SDS011;22407;42.820;23.374;2023-01-23T05:48:08;13.10;;;4.80;;
31872;SDS011;22407;42.820;23.374;2023-01-23T05:50:33;5.17;;;1.87;;
31872;SDS011;22407;42.820;23.374;2023-01-23T05:52:59;6.70;;;2.73;;
31872;SDS011;22407;42.820;23.374;2023-01-23T05:55:24;6.07;;;2.60;;
31872;SDS011;22407;42.820;23.374;2023-01-23T05:57:49;15.13;;;3.33;;
31872;SDS011;22407;42.820;23.374;2023-01-23T06:00:15;9.17;;;3.43;;
31872;SDS011;22407;42.820;23.374;2023-01-23T06:02:41;7.60;;;2.70;;
31872;SDS011;22407;42.820;23.374;2023-01-23T06:05:06;7.83;;;3.10;;
31872;SDS011;22407;42.820;23.374;2023-01-23T06:07:32;8.88;;;3.10;;
31872;SDS011;22407;42.820;23.374;2023-01-23T06:09:57;12.40;;;2.70;;
31872;SDS011;22407;42.820;23.374;2023-01-23T06:12:22;6.53;;;2.80;;
31872;SDS011;22407;42.820;23.374;2023-01-23T06:14:48;8.07;;;3.10;;
31872;SDS011;22407;42.820;23.374;2023-01-23T06:17:13;8.17;;;3.40;;
31872;SDS011;22407;42.820;23.374;2023-01-23T06:19:39;5.63;;;2.37;;
31872;SDS011;22407;42.820;23.374;2023-01-23T06:22:04;8.37;;;2.37;;
31872;SDS011;22407;42.820;23.374;2023-01-23T06:24:30;4.47;;;1.70;;
31872;SDS011;22407;42.820;23.374;2023-01-23T06:26:55;6.93;;;2.87;;
31872;SDS011;22407;42.820;23.374;2023-01-23T06:29:20;6.53;;;2.70;;
31872;SDS011;22407;42.820;23.374;2023-01-23T06:31:45;5.67;;;2.37;;
31872;SDS011;22407;42.820;23.374;2023-01-23T06:34:11;5.35;;;2.17;;
31872;SDS011;22407;42.820;23.374;2023-01-23T06:36:52;6.73;;;3.17;;
31872;SDS011;22407;42.820;23.374;2023-01-23T06:39:18;5.93;;;2.03;;
31872;SDS011;22407;42.820;23.374;2023-01-23T06:41:43;6.40;;;2.40;;
31872;SDS011;22407;42.820;23.374;2023-01-23T06:44:09;6.63;;;2.37;;
31872;SDS011;22407;42.820;23.374;2023-01-23T06:46:34;4.53;;;1.87;;
31872;SDS011;22407;42.820;23.374;2023-01-23T06:48:59;6.63;;;2.00;;
31872;SDS011;22407;42.820;23.374;2023-01-23T06:51:24;7.30;;;2.50;;
31872;SDS011;22407;42.820;23.374;2023-01-23T06:53:50;5.37;;;2.40;;
31872;SDS011;22407;42.820;23.374;2023-01-23T06:56:15;5.13;;;2.00;;
31872;SDS011;22407;42.820;23.374;2023-01-23T06:58:42;6.77;;;2.47;;
31872;SDS011;22407;42.820;23.374;2023-01-23T07:01:11;5.80;;;2.53;;
31872;SDS011;22407;42.820;23.374;2023-01-23T07:03:36;6.00;;;2.70;;
31872;SDS011;22407;42.820;23.374;2023-01-23T07:06:03;5.47;;;2.67;;
31872;SDS011;22407;42.820;23.374;2023-01-23T07:08:31;5.78;;;1.95;;
31872;SDS011;22407;42.820;23.374;2023-01-23T07:10:56;4.80;;;2.15;;
31872;SDS011;22407;42.820;23.374;2023-01-23T07:13:21;4.87;;;1.63;;
31872;SDS011;22407;42.820;23.374;2023-01-23T07:15:47;5.70;;;1.93;;
31872;SDS011;22407;42.820;23.374;2023-01-23T07:18:12;5.70;;;2.23;;
31872;SDS011;22407;42.820;23.374;2023-01-23T07:20:39;6.20;;;2.20;;
31872;SDS011;22407;42.820;23.374;2023-01-23T07:23:04;6.75;;;2.22;;
31872;SDS011;22407;42.820;23.374;2023-01-23T07:25:30;5.33;;;2.10;;
31872;SDS011;22407;42.820;23.374;2023-01-23T07:27:55;5.13;;;1.93;;
31872;SDS011;22407;42.820;23.374;2023-01-23T07:30:20;7.47;;;2.60;;
31872;SDS011;22407;42.820;23.374;2023-01-23T07:32:45;5.10;;;2.00;;
31872;SDS011;22407;42.820;23.374;2023-01-23T07:35:11;5.22;;;2.22;;
31872;SDS011;22407;42.820;23.374;2023-01-23T07:37:36;5.87;;;2.50;;
31872;SDS011;22407;42.820;23.374;2023-01-23T07:40:02;5.50;;;2.47;;
31872;SDS011;22407;42.820;23.374;2023-01-23T07:42:27;6.67;;;2.20;;
31872;SDS011;22407;42.820;23.374;2023-01-23T07:44:52;4.90;;;2.10;;
31872;SDS011;22407;42.820;23.374;2023-01-23T07:47:18;5.90;;;2.28;;
31872;SDS011;22407;42.820;23.374;2023-01-23T07:49:43;6.10;;;2.17;;
31872;SDS011;22407;42.820;23.374;2023-01-23T07:52:09;5.20;;;2.53;;
31872;SDS011;22407;42.820;23.374;2023-01-23T07:54:34;6.17;;;2.60;;
31872;SDS011;22407;42.820;23.374;2023-01-23T07:57:00;6.07;;;2.33;;
31872;SDS011;22407;42.820;23.374;2023-01-23T07:59:25;11.67;;;3.20;;
31872;SDS011;22407;42.820;23.374;2023-01-23T08:01:50;5.63;;;2.17;;
31872;SDS011;22407;42.820;23.374;2023-01-23T08:04:17;6.82;;;2.30;;
31872;SDS011;22407;42.820;23.374;2023-01-23T08:06:42;6.87;;;3.00;;
31872;SDS011;22407;42.820;23.374;2023-01-23T08:09:07;5.03;;;1.97;;
31872;SDS011;22407;42.820;23.374;2023-01-23T08:11:32;6.33;;;2.83;;
31872;SDS011;22407;42.820;23.374;2023-01-23T08:13:58;7.73;;;2.60;;
31872;SDS011;22407;42.820;23.374;2023-01-23T08:16:23;6.10;;;2.50;;
31872;SDS011;22407;42.820;23.374;2023-01-23T08:18:48;5.80;;;2.30;;
31872;SDS011;22407;42.820;23.374;2023-01-23T08:21:14;6.20;;;2.00;;
31872;SDS011;22407;42.820;23.374;2023-01-23T08:23:41;5.90;;;2.20;;
31872;SDS011;22407;42.820;23.374;2023-01-23T08:26:07;7.10;;;2.37;;
31872;SDS011;22407;42.820;23.374;2023-01-23T08:28:32;5.13;;;2.30;;
31872;SDS011;22407;42.820;23.374;2023-01-23T08:31:02;5.93;;;2.60;;
31872;SDS011;22407;42.820;23.374;2023-01-23T08:33:28;6.97;;;2.33;;
31872;SDS011;22407;42.820;23.374;2023-01-23T08:35:54;6.00;;;2.70;;
31872;SDS011;22407;42.820;23.374;2023-01-23T08:38:20;6.38;;;2.40;;
31872;SDS011;22407;42.820;23.374;2023-01-23T08:40:46;6.40;;;2.37;;
31872;SDS011;22407;42.820;23.374;2023-01-23T08:43:12;7.30;;;2.78;;
31872;SDS011;22407;42.820;23.374;2023-01-23T08:45:38;7.47;;;2.70;;
31872;SDS011;22407;42.820;23.374;2023-01-23T08:48:04;6.93;;;1.90;;
31872;SDS011;22407;42.820;23.374;2023-01-23T08:50:29;5.70;;;2.53;;
31872;SDS011;22407;42.820;23.374;2023-01-23T08:52:55;6.57;;;2.70;;
31872;SDS011;22407;42.820;23.374;2023-01-23T08:55:20;9.40;;;3.37;;
31872;SDS011;22407;42.820;23.374;2023-01-23T08:57:45;7.73;;;2.80;;
31872;SDS011;22407;42.820;23.374;2023-01-23T09:00:11;9.27;;;3.80;;
31872;SDS011;22407;42.820;23.374;2023-01-23T09:02:36;10.77;;;4.20;;
31872;SDS011;22407;42.820;23.374;2023-01-23T09:05:02;7.13;;;3.37;;
31872;SDS011;22407;42.820;23.374;2023-01-23T09:07:28;8.65;;;3.70;;
31872;SDS011;22407;42.820;23.374;2023-01-23T09:09:54;8.03;;;3.13;;
31872;SDS011;22407;42.820;23.374;2023-01-23T09:12:19;8.93;;;3.20;;
31872;SDS011;22407;42.820;23.374;2023-01-23T09:14:44;7.23;;;3.30;;
31872;SDS011;22407;42.820;23.374;2023-01-23T09:17:10;6.87;;;3.13;;
31872;SDS011;22407;42.820;23.374;2023-01-23T09:19:35;6.77;;;2.80;;
31872;SDS011;22407;42.820;23.374;2023-01-23T09:22:01;8.30;;;3.17;;
31872;SDS011;22407;42.820;23.374;2023-01-23T09:24:26;6.75;;;2.70;;
31872;SDS011;22407;42.820;23.374;2023-01-23T09:26:52;7.87;;;3.33;;
31872;SDS011;22407;42.820;23.374;2023-01-23T09:29:17;7.17;;;3.37;;
31872;SDS011;22407;42.820;23.374;2023-01-23T09:31:42;12.83;;;5.47;;
31872;SDS011;22407;42.820;23.374;2023-01-23T09:34:07;21.00;;;8.60;;
31872;SDS011;22407;42.820;23.374;2023-01-23T09:36:33;9.07;;;3.20;;
31872;SDS011;22407;42.820;23.374;2023-01-23T09:38:59;12.02;;;3.83;;
31872;SDS011;22407;42.820;23.374;2023-01-23T09:41:25;7.43;;;3.13;;
31872;SDS011;22407;42.820;23.374;2023-01-23T09:43:56;6.75;;;2.60;;
31872;SDS011;22407;42.820;23.374;2023-01-23T09:46:27;8.15;;;3.33;;
31872;SDS011;22407;42.820;23.374;2023-01-23T09:48:56;8.93;;;3.67;;
31872;SDS011;22407;42.820;23.374;2023-01-23T09:53:48;11.23;;;3.13;;
31872;SDS011;22407;42.820;23.374;2023-01-23T09:58:56;8.23;;;3.28;;
31872;SDS011;22407;42.820;23.374;2023-01-23T10:01:22;7.27;;;2.90;;
31872;SDS011;22407;42.820;23.374;2023-01-23T10:03:48;7.75;;;3.33;;
31872;SDS011;22407;42.820;23.374;2023-01-23T10:11:26;6.60;;;2.88;;
31872;SDS011;22407;42.820;23.374;2023-01-23T10:21:32;8.00;;;3.30;;
31872;SDS011;22407;42.820;23.374;2023-01-23T10:26:29;7.78;;;3.30;;
31872;SDS011;22407;42.820;23.374;2023-01-23T10:28:56;10.88;;;3.17;;
31872;SDS011;22407;42.820;23.374;2023-01-23T10:31:25;8.52;;;3.67;;
31872;SDS011;22407;42.820;23.374;2023-01-23T10:41:20;9.87;;;4.10;;
31872;SDS011;22407;42.820;23.374;2023-01-23T10:43:48;10.43;;;4.07;;
31872;SDS011;22407;42.820;23.374;2023-01-23T10:46:14;9.10;;;4.23;;
31872;SDS011;22407;42.820;23.374;2023-01-23T10:48:44;7.50;;;2.65;;
31872;SDS011;22407;42.820;23.374;2023-01-23T10:51:23;7.22;;;3.28;;
31872;SDS011;22407;42.820;23.374;2023-01-23T10:56:48;13.63;;;5.03;;
31872;SDS011;22407;42.820;23.374;2023-01-23T10:59:23;11.53;;;4.80;;
31872;SDS011;22407;42.820;23.374;2023-01-23T11:02:01;8.60;;;3.47;;
31872;SDS011;22407;42.820;23.374;2023-01-23T11:04:27;9.73;;;3.88;;
31872;SDS011;22407;42.820;23.374;2023-01-23T11:07:04;8.45;;;3.38;;
31872;SDS011;22407;42.820;23.374;2023-01-23T11:09:29;9.10;;;3.95;;
31872;SDS011;22407;42.820;23.374;2023-01-23T11:11:58;9.10;;;3.47;;
31872;SDS011;22407;42.820;23.374;2023-01-23T11:14:24;8.48;;;3.50;;
31872;SDS011;22407;42.820;23.374;2023-01-23T11:19:35;10.10;;;4.18;;
31872;SDS011;22407;42.820;23.374;2023-01-23T11:22:01;9.43;;;3.58;;
31872;SDS011;22407;42.820;23.374;2023-01-23T11:24:35;11.67;;;4.17;;
31872;SDS011;22407;42.820;23.374;2023-01-23T11:27:05;10.05;;;3.70;;
31872;SDS011;22407;42.820;23.374;2023-01-23T11:32:20;7.00;;;3.25;;
31872;SDS011;22407;42.820;23.374;2023-01-23T11:34:49;11.00;;;4.53;;
31872;SDS011;22407;42.820;23.374;2023-01-23T11:37:23;10.33;;;4.53;;
31872;SDS011;22407;42.820;23.374;2023-01-23T11:39:52;6.43;;;3.22;;
31872;SDS011;22407;42.820;23.374;2023-01-23T11:42:18;10.50;;;3.80;;
31872;SDS011;22407;42.820;23.374;2023-01-23T11:44:44;8.60;;;3.70;;
31872;SDS011;22407;42.820;23.374;2023-01-23T11:47:15;10.68;;;4.22;;
31872;SDS011;22407;42.820;23.374;2023-01-23T11:59:51;7.30;;;2.85;;
31872;SDS011;22407;42.820;23.374;2023-01-23T12:15:08;10.23;;;3.70;;
31872;SDS011;22407;42.820;23.374;2023-01-23T12:17:40;8.43;;;3.72;;
31872;SDS011;22407;42.820;23.374;2023-01-23T12:27:41;10.75;;;3.55;;
31872;SDS011;22407;42.820;23.374;2023-01-23T12:30:13;10.38;;;3.20;;
31872;SDS011;22407;42.820;23.374;2023-01-23T12:32:56;13.80;;;4.38;;
31872;SDS011;22407;42.820;23.374;2023-01-23T12:38:00;11.77;;;4.18;;
31872;SDS011;22407;42.820;23.374;2023-01-23T12:40:32;14.70;;;5.20;;
31872;SDS011;22407;42.820;23.374;2023-01-23T12:43:06;13.37;;;5.23;;
31872;SDS011;22407;42.820;23.374;2023-01-23T12:45:33;9.63;;;4.13;;
31872;SDS011;22407;42.820;23.374;2023-01-23T12:48:03;9.53;;;3.17;;
31872;SDS011;22407;42.820;23.374;2023-01-23T12:53:09;8.38;;;3.45;;
31872;SDS011;22407;42.820;23.374;2023-01-23T12:55:35;10.05;;;3.58;;
31872;SDS011;22407;42.820;23.374;2023-01-23T12:58:02;8.87;;;3.13;;
31872;SDS011;22407;42.820;23.374;2023-01-23T13:13:59;15.43;;;5.35;;
31872;SDS011;22407;42.820;23.374;2023-01-23T13:16:29;11.60;;;4.97;;
31872;SDS011;22407;42.820;23.374;2023-01-23T13:18:55;9.55;;;4.35;;
31872;SDS011;22407;42.820;23.374;2023-01-23T13:21:39;12.15;;;4.97;;
31872;SDS011;22407;42.820;23.374;2023-01-23T13:29:54;16.70;;;5.78;;
31872;SDS011;22407;42.820;23.374;2023-01-23T13:32:22;13.80;;;4.80;;
31872;SDS011;22407;42.820;23.374;2023-01-23T13:34:51;14.35;;;5.50;;
31872;SDS011;22407;42.820;23.374;2023-01-23T13:40:21;18.43;;;6.03;;
31872;SDS011;22407;42.820;23.374;2023-01-23T13:42:47;14.52;;;5.70;;
31872;SDS011;22407;42.820;23.374;2023-01-23T13:47:47;12.43;;;5.17;;
31872;SDS011;22407;42.820;23.374;2023-01-23T13:50:35;11.88;;;4.78;;
31872;SDS011;22407;42.820;23.374;2023-01-23T13:56:15;12.95;;;4.63;;
31872;SDS011;22407;42.820;23.374;2023-01-23T13:59:00;16.73;;;7.07;;
31872;SDS011;22407;42.820;23.374;2023-01-23T14:01:26;11.80;;;5.43;;
31872;SDS011;22407;42.820;23.374;2023-01-23T14:04:11;18.15;;;6.90;;
31872;SDS011;22407;42.820;23.374;2023-01-23T14:06:56;15.18;;;5.90;;
31872;SDS011;22407;42.820;23.374;2023-01-23T14:09:23;18.43;;;6.10;;
31872;SDS011;22407;42.820;23.374;2023-01-23T14:11:58;16.93;;;6.20;;
31872;SDS011;22407;42.820;23.374;2023-01-23T14:14:26;10.80;;;4.05;;
31872;SDS011;22407;42.820;23.374;2023-01-23T14:17:10;15.02;;;5.07;;
31872;SDS011;22407;42.820;23.374;2023-01-23T14:19:37;15.80;;;5.83;;
31872;SDS011;22407;42.820;23.374;2023-01-23T14:22:10;11.73;;;5.00;;
31872;SDS011;22407;42.820;23.374;2023-01-23T14:27:07;13.35;;;5.55;;
31872;SDS011;22407;42.820;23.374;2023-01-23T14:29:33;14.85;;;6.65;;
31872;SDS011;22407;42.820;23.374;2023-01-23T14:31:58;14.77;;;6.43;;
31872;SDS011;22407;42.820;23.374;2023-01-23T14:34:24;20.70;;;8.07;;
31872;SDS011;22407;42.820;23.374;2023-01-23T14:36:50;20.43;;;7.80;;
31872;SDS011;22407;42.820;23.374;2023-01-23T14:39:20;13.52;;;5.57;;
31872;SDS011;22407;42.820;23.374;2023-01-23T14:41:46;17.90;;;7.82;;
31872;SDS011;22407;42.820;23.374;2023-01-23T14:44:23;13.68;;;6.35;;
31872;SDS011;22407;42.820;23.374;2023-01-23T14:46:52;19.65;;;7.53;;
31872;SDS011;22407;42.820;23.374;2023-01-23T14:49:26;18.60;;;6.90;;
31872;SDS011;22407;42.820;23.374;2023-01-23T14:51:55;19.67;;;8.13;;
31872;SDS011;22407;42.820;23.374;2023-01-23T14:54:21;14.80;;;6.22;;
31872;SDS011;22407;42.820;23.374;2023-01-23T14:56:47;15.67;;;6.13;;
31872;SDS011;22407;42.820;23.374;2023-01-23T14:59:46;14.25;;;6.00;;
31872;SDS011;22407;42.820;23.374;2023-01-23T15:05:23;19.08;;;6.93;;
31872;SDS011;22407;42.820;23.374;2023-01-23T15:10:18;14.45;;;5.93;;
31872;SDS011;22407;42.820;23.374;2023-01-23T15:12:54;14.70;;;5.75;;
31872;SDS011;22407;42.820;23.374;2023-01-23T15:15:20;17.77;;;7.30;;
31872;SDS011;22407;42.820;23.374;2023-01-23T15:17:46;25.00;;;9.93;;
31872;SDS011;22407;42.820;23.374;2023-01-23T15:22:52;153.63;;;42.50;;
31872;SDS011;22407;42.820;23.374;2023-01-23T15:25:35;56.47;;;18.97;;
31872;SDS011;22407;42.820;23.374;2023-01-23T15:28:25;30.73;;;13.20;;
31872;SDS011;22407;42.820;23.374;2023-01-23T15:30:46;28.63;;;11.90;;
31872;SDS011;22407;42.820;23.374;2023-01-23T15:33:26;23.90;;;10.20;;
31872;SDS011;22407;42.820;23.374;2023-01-23T15:35:59;31.87;;;11.40;;
31872;SDS011;22407;42.820;23.374;2023-01-23T15:38:25;22.30;;;9.68;;
31872;SDS011;22407;42.820;23.374;2023-01-23T15:40:50;20.37;;;10.07;;
31872;SDS011;22407;42.820;23.374;2023-01-23T15:43:16;21.23;;;9.30;;
31872;SDS011;22407;42.820;23.374;2023-01-23T15:45:42;26.17;;;10.98;;
31872;SDS011;22407;42.820;23.374;2023-01-23T15:48:07;11.73;;;6.23;;
31872;SDS011;22407;42.820;23.374;2023-01-23T15:50:33;18.40;;;7.93;;
31872;SDS011;22407;42.820;23.374;2023-01-23T15:52:58;18.17;;;7.23;;
31872;SDS011;22407;42.820;23.374;2023-01-23T15:55:24;14.90;;;5.90;;
31872;SDS011;22407;42.820;23.374;2023-01-23T15:57:50;13.27;;;6.53;;
31872;SDS011;22407;42.820;23.374;2023-01-23T16:00:18;29.87;;;10.50;;
31872;SDS011;22407;42.820;23.374;2023-01-23T16:02:44;19.15;;;5.63;;
31872;SDS011;22407;42.820;23.374;2023-01-23T16:05:09;22.97;;;8.77;;
31872;SDS011;22407;42.820;23.374;2023-01-23T16:07:41;16.10;;;5.87;;
31872;SDS011;22407;42.820;23.374;2023-01-23T16:10:21;31.40;;;12.43;;
31872;SDS011;22407;42.820;23.374;2023-01-23T16:12:51;22.52;;;7.90;;
31872;SDS011;22407;42.820;23.374;2023-01-23T16:15:17;26.60;;;7.65;;
31872;SDS011;22407;42.820;23.374;2023-01-23T16:17:43;38.15;;;13.80;;
31872;SDS011;22407;42.820;23.374;2023-01-23T16:20:11;14.83;;;5.83;;
31872;SDS011;22407;42.820;23.374;2023-01-23T16:22:37;20.23;;;6.68;;
31872;SDS011;22407;42.820;23.374;2023-01-23T16:25:02;15.40;;;6.07;;
31872;SDS011;22407;42.820;23.374;2023-01-23T16:27:28;20.20;;;7.50;;